Aérodrome :







RETROUVEZ-NOUS SUR...

 
LOGIN :

S'inscrire | Disclaimer

   EN    FR    IT 

 









Légende :    VFR   VFR Marginal   IFR   IFR Intensif   IFR Très Intensif
Visi : 
Plafond : 
>= 8 km
>= 3000ft
5 à 8 km
1000 à 3000 ft
1500m à 5 km
500 à 1000 ft
800 à 1500m
200 à 500 ft
< 800m
< 200 ft
Symboles :   Orages  Brouillard  Fortes neiges  Fortes précipitations  Vent > 20 kt






- Altitude de l'aérodrome : 1194 ft


KPSF - Pittsfield Municipal

DERNIER METAR :
  • 241654Z AUTO 00000KT 10SM CLR 10/M08 A2996 RMK AO2 SLP148 T01001078

METARs EXPIRÉS :
  • 241554Z AUTO 00000KT 10SM SCT060 08/M07 A2998 RMK AO2 SLP156 T00831072
  • 241454Z AUTO 00000KT 10SM CLR 05/M08 A2998 RMK AO2 SLP160 T00501083 50000

TAF KPSF
Valide du 24 à 12h jusqu'au 25 à 12h UTC


241120Z 2412/2512 00000KT P6SM SKC
FM241400 22006KT P6SM SCT250
FM242300 00000KT P6SM BKN200
FM250800 00000KT P6SM BKN070



MET'MAP, la Météo Aéronautique d'un coup d'oeil ! - Copyright ORBIFLY Décembre 2007 - Disclaimer

ORBIFLY MET'MAP TEAM :

Programmation & Développement : Alexandra Zaïnal
Sur une idée originale de : Baudouin d'Aumeries
Assistance à la programmation : Marc-Olivier Méhu
Soutien technique & logistique : Manuel Goepfert

Contact : metmap@orbifly.com




SOURCES & CREDITS :

   NOAA